Time;durP1;ratioP1;P1;durP2;ratioP2;P2;SDS_P1;SDS_P2;PMS_P1;PMS_P2;Temp;Humidity;BMP_temperature;BMP_pressure;BME280_temperature;BME280_humidity;BME280_pressure;Samples;Min_cycle;Max_cycle;Signal;HPM_P1;HPM_P2
2022/07/31 00:00:35;;;;;;;6.00;3.97;;;17.80;88.50;;;;;;5070523;28;20490;-66
2022/07/31 00:03:03;;;;;;;4.27;3.10;;;17.70;88.90;;;;;;5071328;28;20497;-69
2022/07/31 00:05:30;;;;;;;3.63;3.20;;;17.70;89.60;;;;;;5069726;28;20467;-66
2022/07/31 00:07:58;;;;;;;7.10;3.47;;;17.70;90.00;;;;;;5070913;28;20501;-66
2022/07/31 00:10:25;;;;;;;4.13;2.60;;;17.60;90.00;;;;;;5088479;28;20495;-66
2022/07/31 00:12:54;;;;;;;3.73;3.30;;;17.70;89.10;;;;;;5091113;28;20435;-66
2022/07/31 00:15:22;;;;;;;4.43;3.30;;;17.60;89.30;;;;;;5071485;28;20440;-66
2022/07/31 00:17:49;;;;;;;4.07;2.90;;;17.60;89.40;;;;;;5070949;28;20466;-66
2022/07/31 00:20:17;;;;;;;5.47;3.03;;;17.60;89.60;;;;;;5086107;28;20443;-66
2022/07/31 00:22:47;;;;;;;4.73;3.13;;;17.60;89.60;;;;;;5091023;28;20439;-67
2022/07/31 00:25:16;;;;;;;4.53;3.20;;;17.60;89.80;;;;;;5074529;28;20432;-66
2022/07/31 00:27:43;;;;;;;4.07;3.40;;;17.60;89.40;;;;;;5070828;28;20534;-67
2022/07/31 00:30:13;;;;;;;3.87;3.13;;;17.50;89.40;;;;;;5069747;28;20446;-66
2022/07/31 00:32:42;;;;;;;4.80;3.90;;;17.50;90.00;;;;;;5076634;28;20431;-66
2022/07/31 00:35:10;;;;;;;4.47;3.57;;;17.50;90.00;;;;;;5091827;28;20912;-66
2022/07/31 00:37:37;;;;;;;4.07;3.47;;;17.40;90.10;;;;;;5093613;28;20949;-66
2022/07/31 00:40:07;;;;;;;5.03;3.50;;;17.40;90.20;;;;;;5095078;28;20941;-66
2022/07/31 00:42:35;;;;;;;3.80;2.70;;;17.30;90.30;;;;;;5088253;28;20431;-66
2022/07/31 00:45:12;;;;;;;5.40;3.30;;;17.20;90.20;;;;;;5074641;28;20475;-67
2022/07/31 00:47:42;;;;;;;3.80;3.40;;;17.20;90.40;;;;;;5079675;28;20985;-66
2022/07/31 00:50:10;;;;;;;4.07;3.53;;;17.20;90.40;;;;;;5094680;28;20457;-66
2022/07/31 00:52:38;;;;;;;4.20;3.20;;;17.10;90.50;;;;;;5088712;28;20434;-66
2022/07/31 00:55:09;;;;;;;6.00;3.30;;;17.10;90.40;;;;;;5074638;28;20942;-66
2022/07/31 00:57:37;;;;;;;3.90;3.37;;;17.10;90.20;;;;;;5072629;28;20492;-67
2022/07/31 01:00:08;;;;;;;6.40;3.13;;;17.00;90.60;;;;;;5074439;28;20486;-66
2022/07/31 01:02:37;;;;;;;6.30;3.70;;;16.90;90.80;;;;;;5076601;28;20827;-66
2022/07/31 01:05:05;;;;;;;5.67;3.90;;;16.90;91.00;;;;;;5094559;28;20438;-66
2022/07/31 01:07:33;;;;;;;4.00;3.43;;;16.90;91.40;;;;;;5090643;28;20443;-66
2022/07/31 01:10:04;;;;;;;5.67;3.50;;;16.90;91.40;;;;;;5074437;28;20804;-66
2022/07/31 01:12:39;;;;;;;6.43;3.63;;;16.80;91.60;;;;;;5074734;28;20563;-67
2022/07/31 01:15:09;;;;;;;4.20;3.80;;;16.80;91.70;;;;;;5090297;28;20561;-66
2022/07/31 01:17:41;;;;;;;4.87;3.80;;;16.70;91.70;;;;;;5090819;28;20431;-66
2022/07/31 01:20:10;;;;;;;8.20;3.93;;;16.70;91.80;;;;;;5074213;28;20438;-66
2022/07/31 01:22:56;;;;;;;4.07;3.40;;;16.70;91.80;;;;;;5072785;28;20831;-68
2022/07/31 01:25:35;;;;;;;5.17;3.63;;;16.70;92.00;;;;;;5073845;28;20439;-66
2022/07/31 01:28:12;;;;;;;5.00;3.30;;;16.80;92.00;;;;;;5072679;28;20786;-69
2022/07/31 01:30:47;;;;;;;4.40;3.70;;;16.80;91.90;;;;;;5074157;28;21197;-66
2022/07/31 01:33:18;;;;;;;4.47;4.07;;;16.80;92.00;;;;;;5078134;28;20434;-66
2022/07/31 01:35:52;;;;;;;4.20;3.20;;;16.80;91.90;;;;;;5094099;28;20435;-67
2022/07/31 01:38:24;;;;;;;5.20;4.70;;;16.80;91.90;;;;;;5086617;28;20904;-66
2022/07/31 01:40:57;;;;;;;4.50;3.50;;;16.80;92.20;;;;;;5075510;28;20454;-66
2022/07/31 01:43:33;;;;;;;3.87;3.17;;;16.80;92.30;;;;;;5093250;28;20439;-66
2022/07/31 01:46:04;;;;;;;4.17;3.77;;;16.90;92.30;;;;;;5091835;28;20549;-66
2022/07/31 01:48:33;;;;;;;4.23;3.83;;;16.90;92.10;;;;;;5092951;28;20443;-66
2022/07/31 01:51:05;;;;;;;5.57;3.80;;;16.90;92.00;;;;;;5087968;28;20432;-66
2022/07/31 01:53:35;;;;;;;4.73;3.23;;;16.90;91.90;;;;;;5073495;28;20444;-66
2022/07/31 01:56:03;;;;;;;5.67;3.87;;;16.80;91.90;;;;;;5072391;28;20436;-66
2022/07/31 01:58:38;;;;;;;5.20;3.20;;;16.90;92.00;;;;;;5073357;28;20953;-67
2022/07/31 02:01:09;;;;;;;4.83;3.07;;;16.90;92.10;;;;;;5074181;28;20434;-66
2022/07/31 02:03:39;;;;;;;3.83;3.30;;;16.90;92.20;;;;;;5093393;28;21120;-65
2022/07/31 02:06:09;;;;;;;3.90;2.60;;;16.90;92.30;;;;;;5088764;28;20440;-66
2022/07/31 02:08:38;;;;;;;5.13;4.30;;;16.90;92.40;;;;;;5093595;28;20446;-66
2022/07/31 02:11:06;;;;;;;4.30;3.27;;;17.00;92.20;;;;;;5089257;28;21138;-67
2022/07/31 02:13:35;;;;;;;4.20;3.57;;;16.90;92.30;;;;;;5073143;28;20526;-66
2022/07/31 02:16:02;;;;;;;8.40;2.80;;;16.90;92.30;;;;;;5074332;28;20981;-66
2022/07/31 02:18:32;;;;;;;3.43;2.90;;;16.80;92.90;;;;;;5094689;28;20878;-66
2022/07/31 02:20:59;;;;;;;4.97;3.50;;;16.70;93.00;;;;;;5092247;28;20435;-68
2022/07/31 02:23:26;;;;;;;4.33;3.87;;;16.80;93.20;;;;;;5073946;28;21002;-66
2022/07/31 02:25:54;;;;;;;8.83;3.50;;;16.80;93.00;;;;;;5074186;28;20522;-66
2022/07/31 02:28:22;;;;;;;4.87;4.10;;;16.90;93.00;;;;;;5073644;28;20436;-66
2022/07/31 02:30:51;;;;;;;7.73;3.83;;;17.00;93.10;;;;;;5076423;28;20522;-66
2022/07/31 02:33:20;;;;;;;4.33;3.20;;;17.00;93.10;;;;;;5094207;28;20478;-66
2022/07/31 02:35:51;;;;;;;7.17;3.60;;;17.10;93.20;;;;;;5088405;28;20914;-66
2022/07/31 02:38:20;;;;;;;3.77;3.37;;;17.10;93.30;;;;;;5073924;28;20518;-67
2022/07/31 02:40:49;;;;;;;4.90;3.30;;;17.10;93.10;;;;;;5076572;28;20431;-66
2022/07/31 02:43:16;;;;;;;3.47;2.77;;;17.10;93.20;;;;;;5094091;28;20475;-66
2022/07/31 02:45:44;;;;;;;3.93;3.03;;;17.10;93.50;;;;;;5090011;28;20558;-66
2022/07/31 02:48:12;;;;;;;4.27;3.27;;;17.20;93.40;;;;;;5073592;28;20814;-67
2022/07/31 02:50:39;;;;;;;3.70;2.80;;;17.20;93.50;;;;;;5073474;28;20472;-66
2022/07/31 02:53:08;;;;;;;7.90;3.67;;;17.00;93.30;;;;;;5093934;28;20475;-66
2022/07/31 02:55:35;;;;;;;6.20;3.10;;;17.00;93.60;;;;;;5092723;28;20893;-66
2022/07/31 02:58:03;;;;;;;5.03;3.63;;;17.00;93.90;;;;;;5071351;28;20523;-66
2022/07/31 03:00:30;;;;;;;4.97;3.30;;;17.00;93.90;;;;;;5073528;28;20443;-66
2022/07/31 03:02:57;;;;;;;3.40;2.70;;;17.10;94.40;;;;;;5091540;28;20443;-66
2022/07/31 03:05:24;;;;;;;5.43;3.33;;;17.10;94.00;;;;;;5093731;28;20438;-66
2022/07/31 03:07:53;;;;;;;4.27;2.83;;;17.10;94.00;;;;;;5074139;28;20531;-66
2022/07/31 03:10:22;;;;;;;6.33;2.97;;;17.00;94.10;;;;;;5073468;28;20833;-66
2022/07/31 03:12:53;;;;;;;5.10;3.23;;;17.00;94.50;;;;;;5088391;28;20446;-66
2022/07/31 03:15:24;;;;;;;6.37;2.87;;;17.00;94.90;;;;;;5093353;28;20996;-66
2022/07/31 03:17:53;;;;;;;3.90;3.50;;;16.90;95.00;;;;;;5075233;28;20531;-66
2022/07/31 03:20:21;;;;;;;5.07;3.70;;;16.90;95.20;;;;;;5072768;28;20436;-66
2022/07/31 03:22:48;;;;;;;3.73;3.37;;;16.90;95.10;;;;;;5087309;28;20919;-66
2022/07/31 03:25:16;;;;;;;3.57;3.27;;;16.90;95.20;;;;;;5093343;28;20814;-66
2022/07/31 03:27:46;;;;;;;9.27;4.10;;;17.00;95.10;;;;;;5076494;28;20934;-66
2022/07/31 03:30:17;;;;;;;6.90;3.77;;;17.00;94.90;;;;;;5072867;28;20498;-66
2022/07/31 03:32:44;;;;;;;3.87;3.50;;;17.10;94.90;;;;;;5084383;28;20443;-67
2022/07/31 03:35:11;;;;;;;4.17;3.73;;;17.20;94.90;;;;;;5093111;28;20565;-66
2022/07/31 03:37:38;;;;;;;4.83;3.80;;;17.20;94.80;;;;;;5090390;28;20510;-66
2022/07/31 03:40:06;;;;;;;4.90;3.43;;;17.20;94.60;;;;;;5093262;28;20435;-66
2022/07/31 03:42:33;;;;;;;3.60;3.30;;;17.20;94.60;;;;;;5088295;28;20504;-66
2022/07/31 03:45:03;;;;;;;6.97;3.60;;;17.20;94.80;;;;;;5092348;28;20470;-66
2022/07/31 03:47:35;;;;;;;4.30;3.90;;;17.20;94.80;;;;;;5080799;28;20498;-66
2022/07/31 03:50:02;;;;;;;6.17;4.17;;;17.20;94.80;;;;;;5072580;28;20440;-66
2022/07/31 03:52:31;;;;;;;5.77;3.40;;;17.20;94.90;;;;;;5081295;28;20501;-66
2022/07/31 03:54:58;;;;;;;5.60;3.43;;;17.20;94.70;;;;;;5092636;28;20540;-66
2022/07/31 03:57:28;;;;;;;3.97;3.57;;;17.20;94.60;;;;;;5081380;28;20524;-66
2022/07/31 03:59:56;;;;;;;4.63;3.30;;;17.10;94.80;;;;;;5072578;28;20476;-66
2022/07/31 04:02:26;;;;;;;4.40;3.30;;;17.10;94.90;;;;;;5079386;28;20508;-66
2022/07/31 04:04:53;;;;;;;6.63;3.20;;;17.10;95.10;;;;;;5092874;28;20475;-66
2022/07/31 04:07:21;;;;;;;4.20;3.60;;;17.00;95.00;;;;;;5084879;28;20531;-67
2022/07/31 04:09:48;;;;;;;4.83;3.70;;;17.00;95.20;;;;;;5070693;28;20519;-68
2022/07/31 04:12:15;;;;;;;5.20;3.90;;;16.90;95.30;;;;;;5072897;28;20479;-66
2022/07/31 04:14:42;;;;;;;4.83;4.30;;;16.90;95.30;;;;;;5087055;28;20510;-66
2022/07/31 04:17:14;;;;;;;4.57;3.60;;;16.90;95.40;;;;;;5093102;28;20466;-66
2022/07/31 04:19:42;;;;;;;4.97;4.27;;;16.90;95.50;;;;;;5074825;28;20846;-66
2022/07/31 04:22:09;;;;;;;5.20;3.87;;;16.90;95.50;;;;;;5084477;28;20849;-66
2022/07/31 04:24:36;;;;;;;4.53;3.40;;;16.90;95.50;;;;;;5081599;28;20550;-66
2022/07/31 04:27:04;;;;;;;6.67;3.53;;;17.00;95.50;;;;;;5092765;28;20989;-65
2022/07/31 04:29:31;;;;;;;5.27;4.23;;;17.00;95.50;;;;;;5090390;28;20439;-66
2022/07/31 04:31:58;;;;;;;4.43;3.70;;;17.00;95.50;;;;;;5092401;28;20522;-66
2022/07/31 04:34:25;;;;;;;10.20;4.57;;;17.00;95.40;;;;;;5071452;28;20919;-66
2022/07/31 04:36:54;;;;;;;7.63;3.77;;;17.00;95.40;;;;;;5071898;28;20966;-70
2022/07/31 04:39:21;;;;;;;5.43;4.20;;;17.10;95.60;;;;;;5071059;28;20851;-66
2022/07/31 04:41:48;;;;;;;5.70;4.60;;;17.10;95.50;;;;;;5072230;28;20961;-66
2022/07/31 04:44:15;;;;;;;4.77;4.27;;;17.10;94.90;;;;;;5071024;28;20772;-66
2022/07/31 04:46:42;;;;;;;7.23;3.70;;;17.10;95.00;;;;;;5072387;28;20495;-68
2022/07/31 04:49:11;;;;;;;7.83;3.63;;;17.10;95.20;;;;;;5070383;28;21011;-66
2022/07/31 04:51:39;;;;;;;4.63;3.47;;;17.00;95.20;;;;;;5072256;28;20442;-66
2022/07/31 04:54:07;;;;;;;4.80;3.80;;;17.10;95.40;;;;;;5071510;28;20463;-66
2022/07/31 04:56:36;;;;;;;4.30;3.80;;;17.10;95.40;;;;;;5072400;28;20669;-66
2022/07/31 04:59:05;;;;;;;4.70;3.83;;;17.20;95.60;;;;;;5086534;28;20423;-67
2022/07/31 05:01:32;;;;;;;4.40;3.37;;;17.20;95.40;;;;;;5092700;28;20467;-66
2022/07/31 05:04:03;;;;;;;4.60;3.30;;;17.30;95.40;;;;;;5076113;28;20524;-68
2022/07/31 05:06:35;;;;;;;4.40;3.70;;;17.30;95.40;;;;;;5072385;28;20471;-66
2022/07/31 05:09:04;;;;;;;4.27;3.67;;;17.40;95.60;;;;;;5085124;28;20514;-66
2022/07/31 05:11:32;;;;;;;4.07;3.40;;;17.50;95.60;;;;;;5092541;28;20451;-66
2022/07/31 05:14:01;;;;;;;3.43;3.13;;;17.60;95.50;;;;;;5077044;28;20432;-66
2022/07/31 05:16:29;;;;;;;3.40;3.10;;;17.70;95.70;;;;;;5071670;28;20518;-66
2022/07/31 05:18:57;;;;;;;4.90;3.20;;;17.90;95.90;;;;;;5082681;28;20933;-66
2022/07/31 05:21:26;;;;;;;5.53;3.43;;;18.10;96.40;;;;;;5092408;28;20458;-66
2022/07/31 05:23:54;;;;;;;9.60;3.63;;;18.30;96.00;;;;;;5082389;28;20431;-66
2022/07/31 05:26:21;;;;;;;4.50;3.57;;;18.50;96.00;;;;;;5079898;28;20921;-67
2022/07/31 05:28:51;;;;;;;6.00;4.27;;;18.70;95.60;;;;;;5084114;28;20515;-67
2022/07/31 05:31:19;;;;;;;5.00;3.90;;;18.80;94.80;;;;;;5093823;28;20474;-67
2022/07/31 05:33:47;;;;;;;5.20;3.50;;;18.90;94.80;;;;;;5092127;28;20440;-67
2022/07/31 05:36:17;;;;;;;4.60;3.50;;;19.10;95.30;;;;;;5091751;28;20468;-66
2022/07/31 05:38:44;;;;;;;5.37;3.30;;;19.10;94.30;;;;;;5092671;28;20528;-66
2022/07/31 05:41:11;;;;;;;5.53;3.30;;;19.30;94.50;;;;;;5094119;28;20442;-66
2022/07/31 05:43:38;;;;;;;3.50;2.80;;;19.40;94.50;;;;;;5090910;28;20481;-67
2022/07/31 05:46:07;;;;;;;4.90;3.17;;;19.50;94.40;;;;;;5089285;28;20485;-66
2022/07/31 05:48:34;;;;;;;5.63;3.10;;;19.60;94.20;;;;;;5091072;28;20451;-68
2022/07/31 05:51:01;;;;;;;4.07;2.50;;;19.60;94.10;;;;;;5077598;28;20483;-68
2022/07/31 05:53:29;;;;;;;3.50;2.87;;;19.70;94.10;;;;;;5080569;28;20447;-66
2022/07/31 05:55:56;;;;;;;4.70;2.90;;;19.70;93.60;;;;;;5087111;28;20479;-67
2022/07/31 05:58:23;;;;;;;6.20;3.43;;;19.80;93.70;;;;;;5087738;28;20838;-68
2022/07/31 06:00:51;;;;;;;3.87;3.10;;;19.80;93.70;;;;;;5086811;28;20509;-70
2022/07/31 06:03:26;;;;;;;4.10;3.50;;;19.80;93.70;;;;;;5086728;28;20453;-66
2022/07/31 06:05:53;;;;;;;3.43;2.63;;;19.80;92.40;;;;;;5083578;28;20443;-66
2022/07/31 06:08:21;;;;;;;5.07;3.30;;;19.80;92.60;;;;;;5090439;28;20504;-66
2022/07/31 06:10:48;;;;;;;6.27;3.00;;;19.80;92.60;;;;;;5092869;28;20528;-66
2022/07/31 06:13:15;;;;;;;7.90;3.50;;;19.80;92.50;;;;;;5091021;28;20450;-67
2022/07/31 06:15:42;;;;;;;3.83;3.17;;;19.80;92.70;;;;;;5093195;28;21023;-67
2022/07/31 06:18:09;;;;;;;4.00;2.73;;;19.90;92.90;;;;;;5088937;28;20495;-67
2022/07/31 06:20:38;;;;;;;4.80;3.17;;;19.90;93.10;;;;;;5092609;28;20541;-66
2022/07/31 06:23:05;;;;;;;3.77;3.37;;;20.00;93.10;;;;;;5091124;28;20932;-66
2022/07/31 06:25:32;;;;;;;3.00;2.43;;;20.10;93.10;;;;;;5093299;28;20811;-66
2022/07/31 06:27:59;;;;;;;3.40;3.10;;;20.10;93.40;;;;;;5076829;28;20449;-69
2022/07/31 06:30:26;;;;;;;4.40;2.93;;;20.20;93.20;;;;;;5067652;28;20433;-66
2022/07/31 06:32:53;;;;;;;4.77;3.23;;;20.30;92.40;;;;;;5086685;28;20465;-67
2022/07/31 06:35:20;;;;;;;3.87;2.50;;;20.30;92.20;;;;;;5071022;28;20581;-67
2022/07/31 06:37:49;;;;;;;5.93;2.77;;;20.30;92.00;;;;;;5088165;28;20469;-69
2022/07/31 06:40:17;;;;;;;5.23;3.10;;;20.40;92.10;;;;;;5082087;28;20869;-67
2022/07/31 06:42:44;;;;;;;3.70;2.90;;;20.40;92.10;;;;;;5092523;28;20450;-66
2022/07/31 06:45:11;;;;;;;9.50;2.90;;;20.50;92.50;;;;;;5090761;28;20493;-66
2022/07/31 06:47:38;;;;;;;3.40;2.73;;;20.50;92.70;;;;;;5088004;28;20539;-66
2022/07/31 06:50:07;;;;;;;7.97;3.33;;;20.50;92.30;;;;;;5089177;28;20439;-68
2022/07/31 06:52:34;;;;;;;2.80;2.40;;;20.60;92.30;;;;;;5088186;28;20474;-65
2022/07/31 06:55:02;;;;;;;6.03;2.70;;;20.60;92.20;;;;;;5092730;28;20470;-67
2022/07/31 06:57:29;;;;;;;5.13;2.63;;;20.60;92.00;;;;;;5082914;28;20527;-68
2022/07/31 06:59:56;;;;;;;4.93;3.20;;;20.70;91.50;;;;;;5085455;28;20465;-65
2022/07/31 07:02:23;;;;;;;3.90;3.00;;;20.70;91.40;;;;;;5091979;28;20924;-66
2022/07/31 07:04:50;;;;;;;6.20;2.93;;;20.70;91.20;;;;;;5089456;28;20472;-66
2022/07/31 07:07:17;;;;;;;3.70;2.90;;;20.70;91.10;;;;;;5084310;28;20984;-66
2022/07/31 07:09:44;;;;;;;3.87;2.57;;;20.80;91.20;;;;;;5090756;28;20433;-66
2022/07/31 07:12:14;;;;;;;4.23;3.10;;;20.90;91.30;;;;;;5080402;28;20922;-67
2022/07/31 07:14:41;;;;;;;3.83;2.70;;;20.80;91.30;;;;;;5089763;28;20439;-72
2022/07/31 07:17:08;;;;;;;3.43;2.33;;;20.90;91.20;;;;;;5091767;28;20824;-65
2022/07/31 07:19:39;;;;;;;3.00;2.53;;;20.90;91.20;;;;;;5091832;28;20478;-66
2022/07/31 07:22:06;;;;;;;3.53;2.90;;;20.90;91.50;;;;;;5092077;28;20525;-66
2022/07/31 07:24:32;;;;;;;5.50;3.30;;;21.00;91.20;;;;;;5092135;28;20525;-66
2022/07/31 07:26:59;;;;;;;4.13;2.80;;;21.10;91.20;;;;;;5092144;28;20857;-66
2022/07/31 07:29:28;;;;;;;2.93;2.53;;;21.10;90.60;;;;;;5092120;28;20864;-66
2022/07/31 07:31:55;;;;;;;5.60;3.03;;;21.20;90.20;;;;;;5091280;28;20809;-66
2022/07/31 07:34:22;;;;;;;6.97;2.40;;;21.30;90.10;;;;;;5091982;28;20504;-66
2022/07/31 07:36:49;;;;;;;4.00;2.63;;;21.40;90.00;;;;;;5091954;28;22274;-66
2022/07/31 07:39:16;;;;;;;3.30;2.77;;;21.50;89.90;;;;;;5092050;28;20467;-66
2022/07/31 07:41:43;;;;;;;5.40;2.93;;;21.70;90.10;;;;;;5091058;28;20504;-70
2022/07/31 07:44:10;;;;;;;3.00;2.50;;;21.80;90.20;;;;;;5091928;28;20439;-67
2022/07/31 07:46:38;;;;;;;4.87;2.50;;;22.00;90.10;;;;;;5091405;28;20578;-67
2022/07/31 07:49:05;;;;;;;3.93;2.50;;;22.20;88.80;;;;;;5091844;28;20447;-66
2022/07/31 07:51:33;;;;;;;4.60;2.37;;;22.30;87.80;;;;;;5088717;28;20949;-67
2022/07/31 07:54:00;;;;;;;4.50;2.60;;;22.50;87.00;;;;;;5079142;28;20851;-67
2022/07/31 07:56:32;;;;;;;5.97;2.90;;;22.60;88.10;;;;;;5082987;28;20812;-67
2022/07/31 07:58:59;;;;;;;4.70;2.20;;;22.70;83.70;;;;;;5091226;28;20517;-69
2022/07/31 08:01:27;;;;;;;4.10;2.43;;;22.70;82.70;;;;;;5087168;28;20468;-67
2022/07/31 08:03:55;;;;;;;3.20;2.20;;;22.90;83.80;;;;;;5086500;28;20517;-66
2022/07/31 08:06:23;;;;;;;3.67;2.77;;;23.20;83.40;;;;;;5089955;28;20431;-67
2022/07/31 08:08:50;;;;;;;4.57;2.77;;;23.50;83.60;;;;;;5090717;28;20530;-67
2022/07/31 08:11:17;;;;;;;3.70;2.03;;;23.80;78.90;;;;;;5090962;28;20854;-67
2022/07/31 08:13:44;;;;;;;3.73;2.60;;;24.20;78.50;;;;;;5091335;28;20798;-68
2022/07/31 08:16:12;;;;;;;4.37;2.40;;;24.60;78.00;;;;;;5081514;28;20491;-68
2022/07/31 08:18:39;;;;;;;3.30;1.57;;;24.80;71.70;;;;;;5081942;28;20439;-67
2022/07/31 08:21:19;;;;;;;5.27;2.30;;;25.10;75.60;;;;;;5085108;28;20444;-67
2022/07/31 08:23:47;;;;;;;3.50;2.40;;;25.60;72.50;;;;;;5076538;28;20773;-66
2022/07/31 08:26:17;;;;;;;4.10;2.23;;;26.10;73.00;;;;;;5079456;28;20804;-67
2022/07/31 08:28:45;;;;;;;3.37;2.30;;;26.60;73.20;;;;;;5089407;28;20500;-68
2022/07/31 08:31:14;;;;;;;4.70;2.30;;;27.10;68.80;;;;;;5085750;28;20518;-69
2022/07/31 08:33:42;;;;;;;3.30;1.83;;;27.40;67.50;;;;;;5085861;28;20851;-67
2022/07/31 08:36:12;;;;;;;3.90;1.87;;;27.80;65.60;;;;;;5088166;28;20581;-67
2022/07/31 08:38:46;;;;;;;4.67;2.10;;;28.00;63.00;;;;;;5089015;28;20815;-67
2022/07/31 08:41:31;;;;;;;3.67;2.30;;;28.30;61.90;;;;;;5084056;28;20435;-71
2022/07/31 08:44:03;;;;;;;3.40;2.00;;;28.50;59.00;;;;;;5086979;28;20851;-67
2022/07/31 08:46:33;;;;;;;3.57;1.80;;;28.60;57.50;;;;;;5087387;28;20500;-67
2022/07/31 08:49:03;;;;;;;4.27;1.97;;;28.70;55.70;;;;;;5088927;28;20450;-67
2022/07/31 08:51:33;;;;;;;4.67;2.03;;;28.80;55.80;;;;;;5085660;28;20488;-67
2022/07/31 08:54:10;;;;;;;3.40;1.73;;;29.00;54.70;;;;;;5089229;28;20479;-67
2022/07/31 08:56:40;;;;;;;3.40;2.43;;;29.10;51.60;;;;;;5088158;28;20470;-68
2022/07/31 08:59:08;;;;;;;5.33;2.20;;;29.30;52.60;;;;;;5084107;28;20435;-67
2022/07/31 09:01:39;;;;;;;3.93;2.20;;;29.40;52.40;;;;;;5085194;28;20446;-79
2022/07/31 09:04:07;;;;;;;4.83;2.03;;;29.60;52.70;;;;;;5081510;28;20485;-68
2022/07/31 09:06:41;;;;;;;2.73;1.50;;;29.80;51.80;;;;;;5093350;28;20445;-67
2022/07/31 09:09:10;;;;;;;3.10;2.03;;;29.90;52.00;;;;;;5086902;28;20431;-67
2022/07/31 09:11:48;;;;;;;7.10;1.60;;;30.00;52.00;;;;;;5087896;28;21018;-69
2022/07/31 09:14:26;;;;;;;3.20;1.63;;;30.10;53.30;;;;;;5092627;28;20476;-67
2022/07/31 09:16:55;;;;;;;4.03;1.90;;;30.30;53.40;;;;;;5082925;28;20480;-68
2022/07/31 09:19:24;;;;;;;3.10;2.20;;;30.50;54.50;;;;;;5087020;28;20443;-69
2022/07/31 09:21:53;;;;;;;3.17;1.83;;;30.80;51.00;;;;;;5087514;28;20435;-70
2022/07/31 09:24:30;;;;;;;4.33;1.70;;;30.90;51.30;;;;;;5090967;28;20504;-68
2022/07/31 09:27:05;;;;;;;2.80;2.00;;;30.60;46.50;;;;;;5086288;28;20436;-67
2022/07/31 09:29:38;;;;;;;5.03;1.80;;;30.40;48.30;;;;;;5091738;28;20795;-67
2022/07/31 09:32:12;;;;;;;3.57;1.80;;;30.30;49.10;;;;;;5092663;28;20439;-69
2022/07/31 09:34:40;;;;;;;2.30;1.30;;;30.30;50.50;;;;;;5091676;28;20431;-68
2022/07/31 09:37:09;;;;;;;2.93;1.53;;;30.40;48.60;;;;;;5088454;28;20985;-67
2022/07/31 09:39:50;;;;;;;4.07;1.43;;;30.50;48.70;;;;;;5088397;28;20498;-68
2022/07/31 09:42:34;;;;;;;2.77;1.70;;;30.80;49.30;;;;;;5089522;28;20833;-68
2022/07/31 09:45:02;;;;;;;2.23;1.53;;;30.90;48.60;;;;;;5082950;28;20567;-67
2022/07/31 09:47:31;;;;;;;3.03;1.93;;;31.20;49.20;;;;;;5090129;28;20435;-68
2022/07/31 09:50:03;;;;;;;4.07;1.70;;;31.50;48.30;;;;;;5086884;28;20442;-71
2022/07/31 09:52:34;;;;;;;2.33;1.57;;;31.70;47.90;;;;;;5086580;28;20510;-67
2022/07/31 09:55:11;;;;;;;2.83;1.40;;;31.90;47.40;;;;;;5087533;28;20802;-67
2022/07/31 09:57:40;;;;;;;3.20;1.90;;;32.00;44.80;;;;;;5083379;28;20475;-67
2022/07/31 10:00:15;;;;;;;2.47;1.77;;;31.80;44.70;;;;;;5087500;28;20794;-68
2022/07/31 10:02:44;;;;;;;3.40;1.50;;;31.60;45.40;;;;;;5087363;28;20478;-68
2022/07/31 10:05:14;;;;;;;3.90;1.80;;;31.40;45.50;;;;;;5088268;28;20447;-68
2022/07/31 10:07:47;;;;;;;2.73;1.43;;;31.20;46.90;;;;;;5087756;28;20442;-68
2022/07/31 10:10:31;;;;;;;2.97;1.70;;;31.10;46.00;;;;;;5089436;28;20794;-71
2022/07/31 10:13:06;;;;;;;2.93;1.50;;;31.20;46.10;;;;;;5089673;28;20459;-67
2022/07/31 10:15:37;;;;;;;5.13;1.70;;;31.40;46.10;;;;;;5084009;28;20743;-71
2022/07/31 10:18:11;;;;;;;2.73;1.60;;;31.60;45.00;;;;;;5088759;28;20470;-67
2022/07/31 10:20:44;;;;;;;3.20;1.60;;;31.50;43.60;;;;;;5086592;28;20532;-69
2022/07/31 10:23:29;;;;;;;2.83;1.63;;;31.40;43.70;;;;;;5087947;28;20512;-67
2022/07/31 10:26:00;;;;;;;2.80;1.93;;;31.30;44.20;;;;;;5091370;28;20443;-68
2022/07/31 10:28:38;;;;;;;4.00;2.10;;;31.10;43.90;;;;;;5086776;28;20467;-67
2022/07/31 10:31:13;;;;;;;3.00;2.00;;;30.90;43.70;;;;;;5088172;28;20446;-67
2022/07/31 10:33:46;;;;;;;4.40;2.47;;;30.60;44.10;;;;;;5078489;28;20526;-67
2022/07/31 10:36:19;;;;;;;3.30;2.20;;;30.30;44.30;;;;;;5089056;28;20606;-67
2022/07/31 10:39:01;;;;;;;3.13;2.00;;;29.80;45.60;;;;;;5086698;28;20471;-68
2022/07/31 10:41:46;;;;;;;4.60;2.00;;;29.50;45.60;;;;;;5074601;28;20467;-67
2022/07/31 10:44:22;;;;;;;3.43;2.00;;;29.40;47.30;;;;;;5086562;28;20477;-70
2022/07/31 10:46:49;;;;;;;3.83;1.90;;;29.20;48.50;;;;;;5088494;28;20518;-67
2022/07/31 10:49:38;;;;;;;2.90;1.60;;;29.30;48.30;;;;;;5085345;28;20439;-69
2022/07/31 10:52:09;;;;;;;3.30;1.37;;;29.30;46.90;;;;;;5085076;28;20443;-67
2022/07/31 10:54:41;;;;;;;2.87;1.77;;;29.50;47.20;;;;;;5079496;28;20480;-69
2022/07/31 10:57:22;;;;;;;2.80;1.67;;;29.80;47.20;;;;;;5087626;28;20554;-71
2022/07/31 10:59:50;;;;;;;3.87;2.10;;;30.30;48.10;;;;;;5085349;28;20959;-67
2022/07/31 11:02:32;;;;;;;4.87;2.10;;;30.70;48.20;;;;;;5085711;28;20999;-67
2022/07/31 11:05:15;;;;;;;3.03;2.10;;;31.20;46.90;;;;;;5084081;28;20938;-69
2022/07/31 11:07:47;;;;;;;3.57;1.70;;;31.60;45.40;;;;;;5086049;28;20435;-68
2022/07/31 11:10:28;;;;;;;4.50;1.97;;;31.90;45.90;;;;;;5085748;28;20447;-67
2022/07/31 11:13:09;;;;;;;5.37;2.20;;;32.20;44.50;;;;;;5081960;28;20492;-67
2022/07/31 11:15:41;;;;;;;3.07;1.70;;;32.40;44.40;;;;;;5080752;28;20681;-68
2022/07/31 11:18:13;;;;;;;6.17;1.97;;;32.50;43.70;;;;;;5087846;28;20474;-67
2022/07/31 11:20:47;;;;;;;3.93;1.93;;;32.60;43.10;;;;;;5088439;28;20442;-67
2022/07/31 11:23:28;;;;;;;6.17;2.00;;;32.70;43.90;;;;;;5087829;28;20443;-68
2022/07/31 11:26:02;;;;;;;8.07;2.77;;;32.70;42.20;;;;;;5086171;28;20430;-67
2022/07/31 11:28:34;;;;;;;3.60;1.83;;;32.60;41.80;;;;;;5087116;28;21002;-69
2022/07/31 11:31:08;;;;;;;3.90;2.20;;;32.50;41.40;;;;;;5086554;28;20439;-67
2022/07/31 11:33:42;;;;;;;6.60;2.47;;;32.30;41.50;;;;;;5089409;28;20431;-67
2022/07/31 11:36:15;;;;;;;3.23;1.73;;;32.20;42.00;;;;;;5084285;28;20432;-67
2022/07/31 11:38:48;;;;;;;2.53;1.73;;;32.10;43.20;;;;;;5068484;28;20887;-68
2022/07/31 11:41:20;;;;;;;7.50;2.00;;;31.90;42.70;;;;;;5089420;28;20427;-68
2022/07/31 11:43:51;;;;;;;4.87;2.10;;;31.80;41.80;;;;;;5086737;28;20456;-67
2022/07/31 11:46:25;;;;;;;3.57;1.83;;;31.80;43.40;;;;;;5084598;28;20469;-67
2022/07/31 11:48:56;;;;;;;3.80;1.83;;;31.80;44.10;;;;;;5082594;28;20434;-67
2022/07/31 11:51:24;;;;;;;3.10;1.60;;;31.90;43.20;;;;;;5079561;28;20914;-67
2022/07/31 11:53:55;;;;;;;5.03;2.13;;;32.10;41.60;;;;;;5083370;28;20444;-68
2022/07/31 11:56:24;;;;;;;16.40;14.80;;;32.30;41.30;;;;;;5086091;28;20888;-67
2022/07/31 11:58:54;;;;;;;6.40;5.80;;;32.50;41.10;;;;;;5085192;28;20475;-67
2022/07/31 12:01:26;;;;;;;3.43;2.83;;;32.60;39.70;;;;;;5081878;28;20458;-70
2022/07/31 12:03:54;;;;;;;2.87;2.00;;;32.70;40.60;;;;;;5083153;28;20435;-68
2022/07/31 12:06:22;;;;;;;3.87;1.87;;;32.70;41.00;;;;;;5088324;28;20903;-68
2022/07/31 12:08:55;;;;;;;6.23;4.60;;;32.70;40.70;;;;;;5086676;28;20419;-68
2022/07/31 12:11:23;;;;;;;6.13;4.10;;;32.80;40.20;;;;;;5002009;28;20993;-67
2022/07/31 12:13:52;;;;;;;8.23;3.97;;;32.80;40.20;;;;;;4995145;28;20981;-69
2022/07/31 12:16:25;;;;;;;7.80;5.47;;;32.80;39.90;;;;;;5010099;28;20442;-68
2022/07/31 12:18:57;;;;;;;13.07;9.80;;;32.90;40.20;;;;;;5000816;28;20560;-67
2022/07/31 12:21:33;;;;;;;21.07;13.80;;;32.90;38.90;;;;;;5005065;28;20529;-67
2022/07/31 12:24:11;;;;;;;7.07;4.00;;;32.90;39.40;;;;;;4970192;28;21165;-72
2022/07/31 12:26:47;;;;;;;5.03;3.50;;;33.00;38.90;;;;;;4999137;28;20526;-67
2022/07/31 12:29:16;;;;;;;3.53;1.93;;;33.10;38.50;;;;;;4996561;28;20439;-67
2022/07/31 12:31:59;;;;;;;3.07;1.60;;;33.10;38.90;;;;;;5005544;28;20439;-68
2022/07/31 12:34:32;;;;;;;2.77;1.73;;;33.10;39.30;;;;;;5012026;28;20878;-77
2022/07/31 12:37:10;;;;;;;3.03;2.33;;;33.10;39.40;;;;;;5011553;28;20434;-67
2022/07/31 12:39:52;;;;;;;3.50;1.53;;;33.00;39.80;;;;;;5009392;28;20447;-67
2022/07/31 12:42:26;;;;;;;2.50;1.47;;;32.90;39.40;;;;;;5012667;28;20435;-67
2022/07/31 12:44:56;;;;;;;4.40;1.90;;;32.80;39.80;;;;;;4996343;28;20451;-68
2022/07/31 12:47:32;;;;;;;3.03;1.60;;;32.70;39.10;;;;;;5003851;28;20435;-74
2022/07/31 12:50:00;;;;;;;6.90;2.00;;;32.40;40.00;;;;;;4999569;28;20450;-67
2022/07/31 12:52:36;;;;;;;2.37;1.57;;;32.00;40.80;;;;;;5002733;28;20470;-73
2022/07/31 12:55:13;;;;;;;4.50;2.17;;;31.80;41.10;;;;;;4992909;28;20964;-73
2022/07/31 12:57:47;;;;;;;4.17;2.03;;;31.80;42.20;;;;;;4999566;28;20560;-74
2022/07/31 13:00:21;;;;;;;4.30;2.00;;;31.70;42.30;;;;;;4993829;28;20781;-68